EDT,Max TemperatureF,Mean TemperatureF,Min TemperatureF,Max Dew PointF,MeanDew PointF,Min DewpointF,Max Humidity, Mean Humidity, Min Humidity, Max Sea Level PressureIn, Mean Sea Level PressureIn, Min Sea Level PressureIn, Max VisibilityMiles, Mean VisibilityMiles, Min VisibilityMiles, Max Wind SpeedMPH, Mean Wind SpeedMPH, Max Gust SpeedMPH,PrecipitationIn, CloudCover, Events, WindDirDegrees
2013-7-1,72,68,63,68,65,63,100,92,84,30.07,30.01,29.94,10,8,1,10,3,,0.38,8,,349
2013-7-2,81,72,63,73,66,61,100,87,74,30.15,30.11,30.05,10,9,2,6,3,,0.35,7,Thunderstorm,327
2013-7-3,84,75,66,70,68,66,100,81,61,30.21,30.16,30.12,10,10,5,9,6,16,0.16,4,,188
2013-7-4,86,76,66,73,69,66,97,77,57,30.22,30.17,30.10,10,10,3,12,4,16,0.53,4,Thunderstorm,188
2013-7-5,88,79,70,73,71,68,100,78,55,30.18,30.13,30.06,10,9,0,10,5,16,0.15,5,Thunderstorm,193
2013-7-6,82,74,66,70,67,64,100,79,58,30.12,30.08,30.03,10,10,9,14,5,20,0.01,3,Thunderstorm,213
2013-7-7,84,74,63,73,66,61,97,79,61,30.07,30.01,29.93,10,9,2,7,2,26,0.79,3,Thunderstorm,140
2013-7-8,77,73,68,72,68,66,100,90,79,30.06,30.00,29.95,10,9,1,9,3,,0.21,6,,208
2013-7-9,82,73,64,70,67,64,100,82,63,30.10,30.05,30.02,10,8,0,15,5,22,0.01,4,Thunderstorm,132
2013-7-10,81,76,70,72,69,66,97,83,69,30.03,29.88,29.78,10,9,5,13,7,18,0.13,5,Thunderstorm,154
2013-7-11,79,71,63,68,63,55,90,73,56,30.02,29.87,29.76,10,10,7,12,5,17,0.00,5,,275
2013-7-12,79,68,57,64,59,55,100,77,54,30.22,30.13,30.03,10,10,10,10,4,,0.00,2,,48
2013-7-13,79,69,59,66,61,55,97,79,60,30.32,30.28,30.22,10,10,10,15,6,18,0.00,5,,139
2013-7-14,82,73,64,70,67,63,93,76,58,30.34,30.29,30.25,10,10,10,7,4,,0.00,5,,128
2013-7-15,88,76,64,70,66,63,93,70,46,30.27,30.22,30.15,10,10,10,8,5,,0.00,1,,93
2013-7-16,88,76,63,68,64,61,93,69,45,30.25,30.21,30.18,10,10,10,12,6,20,0.00,0,,47
2013-7-17,90,77,64,72,67,63,93,73,52,30.23,30.14,30.01,10,10,6,10,6,16,0.00,1,,200
2013-7-18,90,80,70,75,70,66,100,78,55,30.07,30.01,29.95,10,9,3,13,5,26,0.10,3,Thunderstorm,208
2013-7-19,90,80,70,73,69,61,97,75,52,29.96,29.83,29.72,10,10,6,16,9,25,0.23,2,Thunderstorm,201
2013-7-20,82,73,64,68,65,63,93,76,58,29.85,29.75,29.70,10,10,9,17,7,27,0.13,3,,192
2013-7-21,75,68,61,63,59,57,100,77,54,30.03,29.97,29.85,10,9,2,7,4,,0.00,2,,358
2013-7-22,79,68,57,68,62,55,100,84,67,30.04,29.97,29.86,10,10,1,14,6,,0.02,4,,151
2013-7-23,75,70,64,68,65,63,93,84,74,29.86,29.68,29.59,10,9,2,9,4,,0.88,6,,148
2013-7-24,72,60,48,66,58,46,100,81,61,30.05,29.78,29.61,10,10,7,14,6,20,0.01,6,,338
2013-7-25,68,57,45,55,49,43,93,75,56,30.13,30.10,30.05,10,10,0,9,4,,0.00,0,,346
2013-7-26,70,62,54,61,56,54,100,84,68,30.11,30.07,30.02,10,10,10,10,3,,0.00,3,,350
2013-7-27,79,66,52,63,57,50,100,73,45,30.07,30.03,29.97,10,10,0,9,4,,0.00,0,,159
2013-7-28,75,68,61,66,62,57,90,79,68,30.00,29.98,29.94,10,10,6,13,8,17,0.15,4,,146
2013-7-29,79,68,57,64,59,50,100,72,43,30.11,30.02,29.98,10,9,2,13,5,16,0.00,3,,221
2013-7-30,73,63,52,59,54,50,93,71,49,30.16,30.12,30.08,10,10,10,9,5,,0.00,3,,186
2013-7-31,77,66,54,61,56,52,93,68,43,30.17,30.11,30.05,10,10,10,10,5,,0.00,1,,157